Time;durP1;ratioP1;P1;durP2;ratioP2;P2;SDS_P1;SDS_P2;PMS_P1;PMS_P2;Temp;Humidity;BMP_temperature;BMP_pressure;BME280_temperature;BME280_humidity;BME280_pressure;Samples;Min_cycle;Max_cycle;Signal;HPM_P1;HPM_P2
2022/01/04 00:01:22;;;;;;;1.17;0.47;;;8.30;99.90;8.20;99390.00;;;;5019790;27;102695;-67
2022/01/04 00:03:48;;;;;;;2.03;0.40;;;8.30;99.90;8.20;99380.00;;;;5020227;27;90784;-66
2022/01/04 00:06:14;;;;;;;0.20;0.20;;;8.20;99.90;8.20;99380.00;;;;5020070;27;93230;-67
2022/01/04 00:08:40;;;;;;;0.10;0.10;;;8.30;99.90;8.20;99375.00;;;;5019431;27;110467;-66
2022/01/04 00:11:41;;;;;;;0.23;0.20;;;8.20;99.90;8.20;99378.00;;;;5020997;27;82422;-67
2022/01/04 00:13:55;;;;;;;0.60;0.40;;;8.20;99.90;8.20;99378.00;;;;5017676;27;82799;-67
2022/01/04 00:16:20;;;;;;;0.40;0.30;;;8.20;99.90;8.20;99376.00;;;;5019745;27;98678;-67
2022/01/04 00:18:47;;;;;;;0.10;0.10;;;8.20;99.90;8.20;99365.00;;;;5019350;27;111810;-67
2022/01/04 00:21:12;;;;;;;0.50;0.40;;;8.30;99.90;8.20;99365.00;;;;5020692;27;82418;-68
2022/01/04 00:23:38;;;;;;;0.13;0.13;;;8.30;99.90;8.20;99358.00;;;;5020240;27;99031;-68
2022/01/04 00:26:04;;;;;;;0.40;0.40;;;8.20;99.90;8.30;99359.00;;;;5020108;27;83534;-68
2022/01/04 00:28:30;;;;;;;0.20;0.20;;;8.30;99.90;8.30;99353.00;;;;5017248;27;83772;-67
2022/01/04 00:30:56;;;;;;;0.40;0.40;;;8.30;99.90;8.30;99349.00;;;;5019577;27;107836;-67
2022/01/04 00:33:22;;;;;;;0.40;0.40;;;8.40;99.90;8.30;99342.00;;;;4983864;27;84776;-67
2022/01/04 00:35:48;;;;;;;0.53;0.30;;;8.40;99.90;8.40;99335.00;;;;5020698;27;83521;-66
2022/01/04 00:38:14;;;;;;;0.60;0.30;;;8.40;99.90;8.40;99337.00;;;;5019927;27;83049;-68
2022/01/04 00:40:40;;;;;;;0.20;0.20;;;8.40;99.90;8.40;99325.00;;;;5020032;27;82692;-68
2022/01/04 00:43:06;;;;;;;0.47;0.47;;;8.50;99.90;8.40;99314.00;;;;5018202;27;111083;-66
2022/01/04 00:45:35;;;;;;;0.20;0.20;;;8.40;99.90;8.40;99311.00;;;;5020571;27;81855;-68
2022/01/04 00:50:29;;;;;;;0.40;0.23;;;8.40;99.90;8.40;99297.00;;;;5019991;27;82651;-70
2022/01/04 00:52:56;;;;;;;1.00;0.40;;;9.00;99.90;8.40;99289.00;;;;5019544;27;84121;-66
2022/01/04 00:55:22;;;;;;;0.37;0.37;;;8.40;99.90;8.30;99289.00;;;;5019653;27;102821;-67
2022/01/04 00:57:48;;;;;;;0.40;0.37;;;8.40;99.90;8.30;99280.00;;;;5019602;27;83014;-68
2022/01/04 01:00:16;;;;;;;1.23;0.50;;;8.50;99.90;8.30;99274.00;;;;5019766;27;85255;-67
2022/01/04 01:02:42;;;;;;;0.40;0.40;;;8.40;99.90;8.30;99276.00;;;;5019093;27;84186;-67
2022/01/04 01:05:10;;;;;;;0.63;0.47;;;8.40;99.90;8.30;99275.00;;;;5019803;27;84095;-66
2022/01/04 01:07:36;;;;;;;0.20;0.20;;;8.40;99.90;8.30;99274.00;;;;4972234;28;83008;-67
2022/01/04 01:12:34;;;;;;;1.10;0.30;;;8.40;99.90;8.30;99272.00;;;;5019057;27;82689;-67
2022/01/04 01:15:01;;;;;;;0.20;0.20;;;8.40;99.90;8.30;99256.00;;;;5018092;27;113311;-67
2022/01/04 01:17:26;;;;;;;0.57;0.37;;;8.40;99.90;8.30;99257.00;;;;5018759;27;83657;-67
2022/01/04 01:19:52;;;;;;;0.57;0.30;;;8.40;99.90;8.30;99243.00;;;;5018999;27;107932;-68
2022/01/04 01:22:18;;;;;;;0.60;0.50;;;8.40;99.90;8.30;99253.00;;;;5018118;27;112134;-68
2022/01/04 01:24:43;;;;;;;1.30;0.40;;;8.40;99.90;8.30;99248.00;;;;5001147;27;82798;-68
2022/01/04 01:27:09;;;;;;;0.33;0.30;;;8.70;99.90;8.40;99242.00;;;;5017491;27;110577;-68
2022/01/04 01:29:35;;;;;;;0.30;0.30;;;8.40;99.90;8.40;99236.00;;;;5000063;27;108878;-68
2022/01/04 01:32:00;;;;;;;1.40;0.40;;;8.40;99.90;8.40;99238.00;;;;5018232;27;112192;-67
2022/01/04 01:34:26;;;;;;;1.60;0.43;;;8.40;99.90;8.40;99244.00;;;;5018813;27;112611;-68
2022/01/04 01:36:52;;;;;;;0.30;0.30;;;8.50;99.90;8.40;99233.00;;;;5019610;27;82789;-68
2022/01/04 01:39:18;;;;;;;0.53;0.33;;;8.50;99.90;8.50;99227.00;;;;5017592;27;108428;-68
2022/01/04 01:41:43;;;;;;;0.47;0.47;;;8.60;99.90;8.50;99227.00;;;;5018715;27;84719;-66
2022/01/04 01:44:10;;;;;;;0.40;0.30;;;8.60;99.90;8.50;99220.00;;;;5018285;27;113601;-67
2022/01/04 01:46:35;;;;;;;0.30;0.30;;;8.60;99.90;8.60;99227.00;;;;5018128;27;109684;-67
2022/01/04 01:49:01;;;;;;;0.73;0.60;;;8.60;99.90;8.60;99224.00;;;;5018304;27;109113;-67
2022/01/04 01:51:31;;;;;;;0.40;0.40;;;8.60;99.90;8.60;99221.00;;;;5017907;27;111209;-68
2022/01/04 01:53:57;;;;;;;0.30;0.20;;;8.70;99.90;8.70;99216.00;;;;4999168;27;83648;-68
2022/01/04 01:56:23;;;;;;;0.27;0.27;;;8.70;99.90;8.70;99210.00;;;;5000403;27;82715;-68
2022/01/04 01:58:50;;;;;;;1.20;0.23;;;8.70;99.90;8.70;99204.00;;;;5019160;27;82091;-68
2022/01/04 02:01:16;;;;;;;0.20;0.20;;;8.70;99.90;8.70;99200.00;;;;5005236;27;82953;-68
2022/01/04 02:03:42;;;;;;;0.30;0.17;;;8.70;99.90;8.70;99190.00;;;;4998842;28;83082;-68
2022/01/04 02:06:08;;;;;;;0.77;0.40;;;8.80;99.90;8.70;99185.00;;;;4999157;27;90058;-67
2022/01/04 02:08:34;;;;;;;0.33;0.20;;;8.80;99.90;8.70;99188.00;;;;5017576;27;108691;-68
2022/01/04 02:11:02;;;;;;;0.30;0.30;;;8.80;99.90;8.80;99189.00;;;;5017647;27;83658;-68
2022/01/04 02:13:28;;;;;;;0.40;0.30;;;8.80;99.90;8.80;99192.00;;;;4995868;28;83286;-68
2022/01/04 02:15:55;;;;;;;3.30;0.47;;;9.10;99.90;8.80;99191.00;;;;4979077;27;83183;-68
2022/01/04 02:18:21;;;;;;;1.23;0.40;;;8.90;99.90;8.80;99184.00;;;;5016967;27;109434;-68
2022/01/04 02:20:47;;;;;;;1.13;0.53;;;8.90;99.90;8.80;99178.00;;;;5009222;27;97263;-68
2022/01/04 02:23:13;;;;;;;0.30;0.30;;;8.90;99.90;8.80;99183.00;;;;4997137;27;112679;-68
2022/01/04 02:25:38;;;;;;;1.00;0.67;;;8.90;99.90;8.90;99177.00;;;;4998427;27;82797;-67
2022/01/04 02:28:05;;;;;;;0.33;0.30;;;8.90;99.90;8.90;99171.00;;;;4997895;28;82779;-68
2022/01/04 02:30:31;;;;;;;1.70;0.60;;;8.90;99.90;8.90;99161.00;;;;5006063;27;99992;-67
2022/01/04 02:32:56;;;;;;;0.57;0.50;;;8.90;99.90;8.90;99160.00;;;;4999155;27;85952;-68
2022/01/04 02:35:26;;;;;;;0.53;0.33;;;9.00;99.90;8.90;99149.00;;;;5015493;27;110308;-68
2022/01/04 02:37:55;;;;;;;0.17;0.17;;;9.00;99.90;8.90;99153.00;;;;5018255;27;82731;-67
2022/01/04 02:40:21;;;;;;;0.97;0.50;;;8.60;99.90;9.00;99152.00;;;;5017264;27;83808;-67
2022/01/04 02:42:47;;;;;;;0.27;0.27;;;9.00;99.90;9.00;99150.00;;;;5017033;27;99178;-68
2022/01/04 02:45:12;;;;;;;0.57;0.40;;;9.00;99.90;9.00;99143.00;;;;5017301;27;108930;-67
2022/01/04 02:47:39;;;;;;;1.07;0.53;;;9.00;99.90;9.00;99152.00;;;;5016878;27;110140;-68
2022/01/04 02:50:06;;;;;;;1.83;0.37;;;9.00;99.90;9.00;99143.00;;;;4999304;27;83035;-68
2022/01/04 02:52:33;;;;;;;0.30;0.30;;;9.10;99.90;9.00;99132.00;;;;5017649;27;83435;-68
2022/01/04 02:55:04;;;;;;;0.20;0.20;;;9.10;99.90;9.10;99125.00;;;;5017492;27;83565;-68
2022/01/04 02:57:30;;;;;;;0.20;0.20;;;9.10;99.90;9.10;99114.00;;;;5017353;27;82764;-68
2022/01/04 02:59:56;;;;;;;0.57;0.40;;;9.10;99.90;9.10;99110.00;;;;5017494;27;83693;-67
2022/01/04 03:02:22;;;;;;;0.27;0.27;;;9.10;99.90;9.10;99119.00;;;;4998222;27;102141;-67
2022/01/04 03:04:47;;;;;;;0.83;0.43;;;9.10;99.90;9.10;99102.00;;;;5017019;27;110554;-69
2022/01/04 03:07:13;;;;;;;4.03;0.40;;;9.20;99.90;9.20;99114.00;;;;4998409;27;107872;-66
2022/01/04 03:09:39;;;;;;;0.40;0.30;;;9.20;99.90;9.20;99103.00;;;;5017582;27;82854;-67
2022/01/04 03:12:06;;;;;;;0.60;0.40;;;9.20;99.90;9.20;99096.00;;;;5017671;27;97038;-67
2022/01/04 03:14:31;;;;;;;0.43;0.27;;;9.20;99.90;9.20;99093.00;;;;5016673;27;96867;-67
2022/01/04 03:16:58;;;;;;;0.10;0.10;;;9.20;99.90;9.20;99095.00;;;;5017585;27;82836;-67
2022/01/04 03:19:24;;;;;;;0.87;0.40;;;9.20;99.90;9.20;99090.00;;;;5015968;27;112930;-67
2022/01/04 03:21:50;;;;;;;0.20;0.20;;;9.20;99.90;9.20;99083.00;;;;5016110;27;112709;-66
2022/01/04 03:24:16;;;;;;;0.47;0.30;;;10.70;99.90;9.20;99079.00;;;;5016361;27;109548;-67
2022/01/04 03:26:43;;;;;;;1.40;0.50;;;9.20;99.90;9.20;99087.00;;;;5017841;27;82467;-67
2022/01/04 03:29:12;;;;;;;0.10;0.10;;;9.20;99.90;9.20;99086.00;;;;5017261;27;83869;-67
2022/01/04 03:31:39;;;;;;;0.20;0.20;;;9.20;99.90;9.20;99085.00;;;;5017622;27;83376;-66
2022/01/04 03:34:05;;;;;;;0.57;0.37;;;9.20;99.90;9.10;99082.00;;;;5016779;27;82784;-67
2022/01/04 03:36:31;;;;;;;1.63;0.30;;;9.20;99.90;9.10;99081.00;;;;4998733;27;87942;-67
2022/01/04 03:38:58;;;;;;;0.93;0.30;;;9.00;99.90;9.10;99061.00;;;;5016803;27;82619;-67
2022/01/04 03:41:26;;;;;;;0.27;0.23;;;9.20;99.90;9.00;99053.00;;;;5017242;27;96812;-67
2022/01/04 03:43:53;;;;;;;2.30;0.40;;;9.10;99.90;9.00;99064.00;;;;5014085;27;88173;-67
2022/01/04 03:46:19;;;;;;;1.80;0.30;;;9.10;99.90;8.90;99060.00;;;;5017541;27;82821;-67
2022/01/04 03:48:45;;;;;;;0.57;0.40;;;9.00;99.90;8.90;99058.00;;;;5016859;27;83057;-67
2022/01/04 03:51:11;;;;;;;0.37;0.27;;;9.00;99.90;8.80;99066.00;;;;5017474;27;83017;-68
2022/01/04 03:53:38;;;;;;;0.57;0.30;;;8.90;99.90;8.80;99061.00;;;;5016766;27;82749;-67
2022/01/04 03:56:04;;;;;;;0.40;0.20;;;8.80;99.90;8.70;99060.00;;;;5017518;27;82479;-67
2022/01/04 03:58:33;;;;;;;0.67;0.43;;;8.80;99.90;8.70;99042.00;;;;5015767;27;100232;-67
2022/01/04 04:00:59;;;;;;;0.23;0.23;;;8.80;99.90;8.60;99038.00;;;;5016782;27;112245;-67
2022/01/04 04:03:24;;;;;;;0.73;0.20;;;8.80;99.90;8.60;99037.00;;;;5015434;27;111709;-67
2022/01/04 04:05:50;;;;;;;0.10;0.10;;;8.70;99.90;8.50;99030.00;;;;5016600;27;107169;-68
2022/01/04 04:08:16;;;;;;;0.20;0.20;;;8.60;99.90;8.50;99036.00;;;;5015321;27;101480;-69
2022/01/04 04:10:42;;;;;;;0.20;0.20;;;8.60;99.90;8.50;99041.00;;;;5016606;27;113471;-69
2022/01/04 04:13:08;;;;;;;0.30;0.27;;;8.50;99.90;8.40;99028.00;;;;5015550;27;109364;-68
2022/01/04 04:15:34;;;;;;;0.33;0.27;;;8.60;99.90;8.40;99025.00;;;;5016730;27;97385;-68
2022/01/04 04:17:59;;;;;;;1.23;0.27;;;8.50;99.90;8.30;99023.00;;;;5018235;27;84434;-68
2022/01/04 04:20:25;;;;;;;0.30;0.30;;;8.40;99.90;8.30;99016.00;;;;5020465;27;82507;-66
2022/01/04 04:22:51;;;;;;;0.30;0.23;;;8.40;99.90;8.30;99014.00;;;;5019535;27;109935;-68
2022/01/04 04:25:17;;;;;;;0.20;0.20;;;8.30;99.90;8.20;99016.00;;;;5019792;27;109589;-68
2022/01/04 04:27:42;;;;;;;0.77;0.40;;;8.30;99.90;8.20;99011.00;;;;5019993;27;85045;-69
2022/01/04 04:30:09;;;;;;;0.30;0.27;;;8.30;99.90;8.20;99007.00;;;;5018924;27;112411;-69
2022/01/04 04:32:35;;;;;;;0.23;0.20;;;8.20;99.90;8.10;98997.00;;;;5019689;27;83943;-68
2022/01/04 04:35:02;;;;;;;0.10;0.10;;;8.20;99.90;8.10;99001.00;;;;5020697;27;82799;-67
2022/01/04 04:37:27;;;;;;;0.20;0.20;;;8.20;99.90;8.10;98983.00;;;;5019739;27;83814;-68
2022/01/04 04:39:53;;;;;;;1.03;0.30;;;8.10;99.90;8.10;98986.00;;;;5018655;27;111682;-69
2022/01/04 04:42:19;;;;;;;0.30;0.30;;;8.10;99.90;8.00;98979.00;;;;5019562;27;109414;-69
2022/01/04 04:44:45;;;;;;;0.83;0.40;;;8.10;99.90;8.00;98982.00;;;;5018601;27;110514;-68
2022/01/04 04:47:11;;;;;;;2.97;0.80;;;8.10;99.90;8.00;98975.00;;;;5019940;27;84166;-71
2022/01/04 04:49:37;;;;;;;1.40;0.60;;;8.10;99.90;8.00;98972.00;;;;5020117;27;82027;-71
2022/01/04 04:52:03;;;;;;;0.40;0.30;;;8.00;99.90;8.00;98970.00;;;;5018837;27;111182;-70
2022/01/04 04:54:29;;;;;;;0.40;0.37;;;8.00;99.90;7.90;98965.00;;;;5019677;27;82631;-73
2022/01/04 04:56:55;;;;;;;0.23;0.23;;;8.00;99.90;7.90;98965.00;;;;5018114;27;113278;-74
2022/01/04 04:59:21;;;;;;;0.27;0.20;;;8.00;99.90;7.90;98970.00;;;;5017283;27;113400;-74
2022/01/04 05:01:46;;;;;;;1.10;0.60;;;8.00;99.90;7.90;98967.00;;;;5019103;27;82676;-73
2022/01/04 05:04:12;;;;;;;0.70;0.50;;;7.90;99.90;7.80;98960.00;;;;5019293;27;82746;-76
2022/01/04 05:06:38;;;;;;;1.13;0.67;;;8.00;99.90;7.80;98964.00;;;;5018444;27;111959;-74
2022/01/04 05:09:03;;;;;;;3.10;1.20;;;8.00;99.90;7.80;98964.00;;;;5017742;27;111964;-74
2022/01/04 05:11:29;;;;;;;1.43;1.13;;;7.90;99.90;7.80;98956.00;;;;5018563;27;110169;-72
2022/01/04 05:13:55;;;;;;;1.10;1.00;;;7.90;99.90;7.80;98947.00;;;;5018795;27;81808;-71
2022/01/04 05:16:22;;;;;;;0.60;0.60;;;7.90;99.90;7.80;98945.00;;;;5000205;27;88223;-70
2022/01/04 05:18:48;;;;;;;0.67;0.60;;;7.90;99.90;7.80;98945.00;;;;5017850;27;112360;-70
2022/01/04 05:21:14;;;;;;;0.33;0.33;;;7.90;99.90;7.80;98940.00;;;;5015914;27;109773;-69
2022/01/04 05:23:39;;;;;;;0.30;0.30;;;7.80;99.90;7.80;98924.00;;;;5018719;27;108235;-69
2022/01/04 05:26:05;;;;;;;0.67;0.57;;;7.80;99.90;7.70;98937.00;;;;5018790;27;113073;-70
2022/01/04 05:28:31;;;;;;;1.00;0.73;;;7.80;99.90;7.70;98931.00;;;;5017355;27;112753;-71
2022/01/04 05:30:56;;;;;;;0.60;0.50;;;7.80;99.90;7.70;98922.00;;;;5018373;27;110665;-71
2022/01/04 05:33:22;;;;;;;0.40;0.40;;;7.80;99.90;7.70;98920.00;;;;5018898;27;82982;-70
2022/01/04 05:35:48;;;;;;;0.97;0.60;;;7.80;99.90;7.70;98912.00;;;;4999158;27;113681;-70
2022/01/04 05:38:15;;;;;;;0.63;0.60;;;7.80;99.90;7.70;98918.00;;;;5015505;27;83922;-71
2022/01/04 05:40:42;;;;;;;0.60;0.50;;;7.80;99.90;7.60;98909.00;;;;5015452;27;82665;-70
2022/01/04 05:43:08;;;;;;;0.53;0.43;;;7.70;99.90;7.60;98914.00;;;;5016072;27;82758;-70
2022/01/04 05:45:34;;;;;;;1.80;0.60;;;7.70;99.90;7.60;98904.00;;;;5015127;27;84371;-71
2022/01/04 05:48:00;;;;;;;0.50;0.40;;;7.70;99.90;7.60;98895.00;;;;5014057;27;110615;-71
2022/01/04 05:50:26;;;;;;;0.87;0.50;;;7.70;99.90;7.60;98888.00;;;;5014252;27;108939;-72
2022/01/04 05:52:51;;;;;;;0.30;0.30;;;7.60;99.90;7.60;98896.00;;;;5015111;27;82878;-73
2022/01/04 05:55:17;;;;;;;0.40;0.40;;;7.60;99.90;7.50;98887.00;;;;5014106;27;113400;-72
2022/01/04 05:57:43;;;;;;;1.07;0.53;;;7.60;99.90;7.50;98881.00;;;;5014015;27;112120;-75
2022/01/04 06:00:10;;;;;;;0.50;0.40;;;7.60;99.90;7.50;98884.00;;;;5014250;27;110472;-74
2022/01/04 06:02:36;;;;;;;0.40;0.40;;;7.60;99.90;7.50;98874.00;;;;5015295;27;81948;-75
2022/01/04 06:05:03;;;;;;;0.43;0.40;;;7.60;99.90;7.50;98874.00;;;;5014437;27;112906;-75
2022/01/04 06:07:29;;;;;;;0.43;0.43;;;7.60;99.90;7.50;98863.00;;;;5017424;27;98795;-75
2022/01/04 06:09:55;;;;;;;0.30;0.30;;;7.60;99.90;7.40;98869.00;;;;5016937;27;94656;-74
2022/01/04 06:15:12;;;;;;;0.30;0.30;;;7.50;99.90;7.40;98856.00;;;;5000727;27;82744;-73
2022/01/04 06:17:44;;;;;;;0.40;0.30;;;7.50;99.90;7.40;98849.00;;;;5018415;27;82950;-72
2022/01/04 06:20:14;;;;;;;0.27;0.20;;;7.50;99.90;7.40;98852.00;;;;5017853;27;82490;-72
2022/01/04 06:22:42;;;;;;;0.47;0.47;;;7.50;99.90;7.40;98839.00;;;;4999921;27;82704;-72
2022/01/04 06:25:12;;;;;;;0.23;0.23;;;7.40;99.90;7.30;98826.00;;;;5018662;27;83092;-72
2022/01/04 06:27:41;;;;;;;0.40;0.40;;;7.50;99.90;7.30;98826.00;;;;4983996;27;82820;-72
2022/01/04 06:30:08;;;;;;;0.50;0.30;;;7.50;99.90;7.30;98830.00;;;;5018504;27;82829;-72
2022/01/04 06:32:35;;;;;;;0.50;0.27;;;7.40;99.90;7.30;98828.00;;;;4999188;27;91098;-72
2022/01/04 06:35:01;;;;;;;2.77;0.60;;;7.50;99.90;7.30;98821.00;;;;5018333;27;83758;-72
2022/01/04 06:37:27;;;;;;;0.77;0.30;;;7.40;99.90;7.30;98819.00;;;;5017761;27;84084;-72
2022/01/04 06:39:53;;;;;;;0.60;0.30;;;7.40;99.90;7.30;98811.00;;;;5016113;27;111153;-72
2022/01/04 06:42:18;;;;;;;1.17;0.60;;;7.40;99.90;7.30;98805.00;;;;4998791;27;108552;-72
2022/01/04 06:44:44;;;;;;;0.57;0.30;;;7.40;99.90;7.30;98806.00;;;;5016959;27;112404;-73
2022/01/04 06:47:10;;;;;;;1.80;0.70;;;7.40;99.90;7.20;98808.00;;;;5016874;27;111139;-74
2022/01/04 06:49:37;;;;;;;0.47;0.30;;;7.40;99.90;7.20;98800.00;;;;4981478;27;83238;-75
2022/01/04 06:52:04;;;;;;;0.20;0.20;;;7.30;99.90;7.20;98782.00;;;;4999926;27;81776;-75
2022/01/04 06:54:30;;;;;;;0.30;0.30;;;7.30;99.90;7.20;98767.00;;;;5016741;27;84032;-74
2022/01/04 06:56:56;;;;;;;0.67;0.37;;;7.30;99.90;7.20;98757.00;;;;5017018;27;97892;-74
2022/01/04 06:59:22;;;;;;;0.47;0.43;;;7.30;99.90;7.20;98757.00;;;;5016923;27;95732;-74
2022/01/04 07:01:48;;;;;;;0.20;0.20;;;7.30;99.90;7.20;98760.00;;;;5018020;27;88682;-74
2022/01/04 07:04:14;;;;;;;0.40;0.40;;;7.20;99.90;7.10;98744.00;;;;4999389;27;82965;-74
2022/01/04 07:06:40;;;;;;;0.40;0.40;;;7.20;99.90;7.10;98753.00;;;;4982459;27;97475;-73
2022/01/04 07:09:08;;;;;;;1.07;0.40;;;7.30;99.90;7.10;98742.00;;;;5017217;27;86477;-74
2022/01/04 07:11:34;;;;;;;0.20;0.20;;;7.20;99.90;7.10;98742.00;;;;4999766;27;82747;-74
2022/01/04 07:14:00;;;;;;;0.90;0.70;;;7.20;99.90;7.10;98744.00;;;;5016480;27;83086;-72
2022/01/04 07:16:26;;;;;;;0.50;0.50;;;7.30;99.90;7.10;98745.00;;;;4999189;27;82972;-73
2022/01/04 07:18:53;;;;;;;0.90;0.70;;;7.20;99.90;7.10;98727.00;;;;5016258;27;97519;-73
2022/01/04 07:21:20;;;;;;;0.30;0.30;;;7.30;99.90;7.10;98728.00;;;;5023993;27;82669;-73
2022/01/04 07:23:48;;;;;;;0.50;0.50;;;8.10;99.90;7.10;98727.00;;;;5016486;27;85060;-72
2022/01/04 07:26:15;;;;;;;0.40;0.37;;;7.20;99.90;7.10;98718.00;;;;5017698;27;83481;-73
2022/01/04 07:28:44;;;;;;;1.00;0.53;;;7.10;99.90;7.10;98731.00;;;;5002109;27;82932;-72
2022/01/04 07:31:10;;;;;;;0.60;0.60;;;7.10;99.90;7.10;98724.00;;;;4990504;27;82992;-73
2022/01/04 07:33:36;;;;;;;0.63;0.63;;;7.10;99.90;7.10;98721.00;;;;5016948;27;84155;-73
2022/01/04 07:36:02;;;;;;;1.00;0.80;;;7.10;99.90;7.10;98718.00;;;;5015554;27;96644;-73
2022/01/04 07:38:28;;;;;;;0.70;0.70;;;7.20;99.90;7.00;98716.00;;;;5014841;27;83414;-73
2022/01/04 07:40:54;;;;;;;1.53;1.37;;;7.10;99.90;7.10;98715.00;;;;5017169;27;109085;-73
2022/01/04 07:43:20;;;;;;;1.70;1.13;;;7.20;99.90;7.10;98702.00;;;;5010102;27;113605;-72
2022/01/04 07:45:45;;;;;;;1.37;1.27;;;7.20;99.90;7.10;98704.00;;;;5009755;27;83691;-72
2022/01/04 07:48:11;;;;;;;2.00;1.33;;;7.20;99.90;7.10;98705.00;;;;4997228;27;95953;-73
2022/01/04 07:50:40;;;;;;;1.17;1.07;;;7.20;99.90;7.10;98699.00;;;;4997103;27;89529;-72
2022/01/04 07:53:07;;;;;;;1.20;1.10;;;7.20;99.90;7.10;98693.00;;;;4999058;27;112697;-73
2022/01/04 07:55:34;;;;;;;1.17;0.70;;;7.20;99.90;7.10;98696.00;;;;5004639;27;87968;-73
2022/01/04 07:58:00;;;;;;;0.50;0.40;;;7.20;99.90;7.10;98689.00;;;;5020826;27;82923;-72
2022/01/04 08:00:26;;;;;;;0.70;0.70;;;7.20;99.90;7.10;98692.00;;;;5016613;27;107834;-72
2022/01/04 08:02:53;;;;;;;0.70;0.70;;;7.20;99.90;7.20;98687.00;;;;4980010;28;85197;-74
2022/01/04 08:05:19;;;;;;;0.80;0.80;;;7.30;99.90;7.20;98671.00;;;;4995236;28;83152;-74
2022/01/04 08:07:45;;;;;;;0.70;0.70;;;7.30;99.90;7.20;98688.00;;;;4999831;28;97532;-73
2022/01/04 08:10:12;;;;;;;0.70;0.63;;;7.30;99.90;7.30;98686.00;;;;5000051;28;82778;-72
2022/01/04 08:12:39;;;;;;;0.67;0.67;;;7.30;99.90;7.30;98680.00;;;;5000645;27;83461;-73
2022/01/04 08:15:06;;;;;;;0.87;0.67;;;7.30;99.90;7.30;98684.00;;;;4998657;27;93936;-73
2022/01/04 08:17:33;;;;;;;1.10;0.83;;;7.40;99.90;7.30;98669.00;;;;4999877;28;82883;-73
2022/01/04 08:20:00;;;;;;;0.90;0.57;;;7.40;99.90;7.40;98665.00;;;;5000537;27;82521;-75
2022/01/04 08:22:32;;;;;;;1.03;0.83;;;7.40;99.90;7.40;98653.00;;;;4999451;28;85037;-74
2022/01/04 08:25:04;;;;;;;0.50;0.40;;;7.50;99.90;7.40;98659.00;;;;4982002;27;82955;-73
2022/01/04 08:27:30;;;;;;;1.33;1.17;;;7.50;99.90;7.40;98655.00;;;;4999465;27;82748;-73
2022/01/04 08:29:57;;;;;;;1.53;0.90;;;7.50;99.90;7.40;98655.00;;;;5001617;27;82049;-73
2022/01/04 08:32:22;;;;;;;1.10;0.80;;;7.50;99.90;7.40;98655.00;;;;4998934;27;98120;-72
2022/01/04 08:34:49;;;;;;;1.07;0.80;;;7.50;99.90;7.40;98647.00;;;;5011913;27;86851;-71
2022/01/04 08:37:15;;;;;;;1.57;0.90;;;7.50;99.90;7.40;98647.00;;;;5000062;27;83737;-71
2022/01/04 08:39:40;;;;;;;1.60;1.17;;;7.50;99.90;7.50;98638.00;;;;5017964;27;82656;-71
2022/01/04 08:42:06;;;;;;;1.20;1.10;;;7.60;99.90;7.50;98630.00;;;;4999417;27;83496;-73
2022/01/04 08:44:33;;;;;;;1.13;1.00;;;7.50;99.90;7.50;98634.00;;;;4998886;28;111099;-73
2022/01/04 08:46:59;;;;;;;0.73;0.73;;;7.60;99.90;7.50;98629.00;;;;4999070;27;82627;-73
2022/01/04 08:49:25;;;;;;;0.90;0.90;;;7.60;99.90;7.50;98621.00;;;;4998626;28;82818;-73
2022/01/04 08:51:51;;;;;;;0.53;0.53;;;7.90;99.90;7.50;98627.00;;;;5008682;27;97712;-71
2022/01/04 08:54:17;;;;;;;1.20;1.10;;;7.60;99.90;7.60;98623.00;;;;4986295;28;82708;-72
2022/01/04 08:56:43;;;;;;;1.17;0.90;;;7.60;99.90;7.60;98625.00;;;;4999157;28;82767;-71
2022/01/04 08:59:10;;;;;;;1.43;1.07;;;7.60;99.90;7.60;98626.00;;;;4999035;28;82605;-71
2022/01/04 09:01:36;;;;;;;0.97;0.90;;;7.70;99.90;7.60;98620.00;;;;4977367;28;86006;-71
2022/01/04 09:04:03;;;;;;;1.47;0.90;;;7.70;99.90;7.70;98624.00;;;;4998957;28;93192;-71
2022/01/04 09:06:30;;;;;;;1.30;1.20;;;7.80;99.90;7.70;98626.00;;;;4999227;28;85970;-71
2022/01/04 09:08:56;;;;;;;1.20;1.10;;;7.80;99.90;7.70;98626.00;;;;4980317;28;92351;-72
2022/01/04 09:11:25;;;;;;;1.20;0.97;;;7.80;99.90;7.80;98617.00;;;;5000276;27;84174;-71
2022/01/04 09:14:01;;;;;;;1.63;1.27;;;7.80;99.90;7.80;98621.00;;;;4999944;27;83135;-72
2022/01/04 09:19:10;;;;;;;1.27;1.10;;;7.50;99.90;7.80;98621.00;;;;4999235;28;81936;-71
2022/01/04 09:21:37;;;;;;;1.53;1.13;;;8.50;99.90;7.80;98612.00;;;;4999015;27;112491;-70
2022/01/04 09:24:05;;;;;;;1.40;1.17;;;7.90;99.90;7.80;98595.00;;;;4980396;28;82697;-71
2022/01/04 09:26:31;;;;;;;2.80;1.53;;;8.20;99.90;7.80;98593.00;;;;4998094;28;83918;-71
2022/01/04 09:28:57;;;;;;;1.70;1.60;;;7.90;99.90;7.80;98593.00;;;;4998842;27;100457;-71
2022/01/04 09:31:26;;;;;;;1.80;1.67;;;7.90;99.90;7.80;98584.00;;;;5014957;27;90163;-71
2022/01/04 09:33:54;;;;;;;3.93;1.83;;;7.90;99.90;7.90;98581.00;;;;5000166;27;83042;-72
2022/01/04 09:36:20;;;;;;;4.20;1.30;;;7.90;99.90;7.90;98577.00;;;;4996565;28;82826;-72
2022/01/04 09:38:46;;;;;;;1.57;1.27;;;7.90;99.90;7.90;98580.00;;;;4997940;28;108763;-71
2022/01/04 09:41:11;;;;;;;2.63;1.60;;;7.90;99.90;7.90;98572.00;;;;4986135;28;112581;-71
2022/01/04 09:43:37;;;;;;;3.27;2.10;;;7.90;99.90;7.90;98568.00;;;;4971119;28;93959;-71
2022/01/04 09:46:03;;;;;;;1.93;1.83;;;7.90;99.90;7.90;98558.00;;;;5005535;27;86400;-72
2022/01/04 09:48:29;;;;;;;3.40;1.60;;;7.90;99.90;7.90;98559.00;;;;5018315;27;103184;-72
2022/01/04 09:50:57;;;;;;;0.73;0.73;;;7.90;99.90;7.90;98548.00;;;;5016374;27;110570;-71
2022/01/04 09:53:24;;;;;;;1.27;1.17;;;8.00;99.90;7.90;98536.00;;;;5005061;27;83880;-71
2022/01/04 09:55:53;;;;;;;3.30;1.27;;;8.00;99.90;7.90;98538.00;;;;4999233;27;82648;-69
2022/01/04 09:58:22;;;;;;;2.50;1.63;;;8.00;99.90;8.00;98519.00;;;;4998364;28;82756;-71
2022/01/04 10:00:49;;;;;;;1.87;1.60;;;8.00;99.90;8.00;98513.00;;;;4998061;28;98997;-70
2022/01/04 10:03:25;;;;;;;2.37;2.10;;;8.00;99.90;8.00;98508.00;;;;4998254;28;83813;-71
2022/01/04 10:06:01;;;;;;;1.80;1.50;;;8.00;99.90;8.00;98497.00;;;;4999039;27;82610;-71
2022/01/04 10:08:27;;;;;;;1.83;1.43;;;8.10;99.90;8.00;98494.00;;;;4979905;28;81778;-70
2022/01/04 10:11:08;;;;;;;1.83;1.30;;;8.10;99.90;8.10;98483.00;;;;4997738;28;98334;-71
2022/01/04 10:13:34;;;;;;;2.20;1.80;;;8.10;99.90;8.10;98487.00;;;;4999186;27;83983;-72
2022/01/04 10:16:00;;;;;;;1.53;1.37;;;8.10;99.90;8.10;98479.00;;;;4995830;27;90326;-72
2022/01/04 10:18:28;;;;;;;2.07;1.33;;;8.20;99.90;8.20;98477.00;;;;4997383;28;89487;-71
2022/01/04 10:21:02;;;;;;;1.17;1.07;;;8.20;99.90;8.20;98463.00;;;;4997660;28;83773;-71
2022/01/04 10:23:28;;;;;;;0.87;0.83;;;8.20;99.90;8.20;98464.00;;;;4995632;28;85014;-70
2022/01/04 10:26:05;;;;;;;2.93;1.30;;;8.20;99.90;8.20;98448.00;;;;5014856;27;82794;-70
2022/01/04 10:28:44;;;;;;;2.43;1.73;;;8.20;99.90;8.20;98449.00;;;;5018216;27;82665;-71
2022/01/04 10:31:15;;;;;;;1.93;1.47;;;8.20;99.90;8.20;98454.00;;;;5018036;27;83362;-72
2022/01/04 10:33:41;;;;;;;1.80;1.40;;;8.20;99.90;8.30;98455.00;;;;5018437;27;83638;-72
2022/01/04 10:36:13;;;;;;;1.23;1.00;;;8.30;99.90;8.30;98448.00;;;;5006755;27;82860;-71
2022/01/04 10:38:46;;;;;;;1.40;1.17;;;8.30;99.90;8.30;98439.00;;;;4979941;28;82813;-71
2022/01/04 10:41:26;;;;;;;1.43;1.33;;;8.40;99.90;8.30;98434.00;;;;4997082;27;84785;-70
2022/01/04 10:44:09;;;;;;;0.90;0.90;;;8.40;99.90;8.40;98426.00;;;;4998128;28;84557;-70
2022/01/04 10:46:42;;;;;;;1.70;1.07;;;8.40;99.90;8.40;98424.00;;;;5012685;27;82755;-69
2022/01/04 10:49:23;;;;;;;2.30;1.10;;;8.40;99.90;8.40;98422.00;;;;5017635;27;82973;-69
2022/01/04 10:52:12;;;;;;;1.27;0.93;;;8.50;99.90;8.40;98427.00;;;;5008572;27;83249;-69
2022/01/04 10:54:38;;;;;;;1.00;1.00;;;8.50;99.90;8.50;98419.00;;;;4992200;28;82962;-70
2022/01/04 10:57:09;;;;;;;1.60;0.90;;;8.60;99.90;8.50;98420.00;;;;4994964;28;110801;-70
2022/01/04 10:59:36;;;;;;;2.37;1.37;;;8.50;99.90;8.50;98413.00;;;;4998337;28;81922;-71
2022/01/04 11:02:03;;;;;;;0.80;0.80;;;8.60;99.90;8.50;98415.00;;;;4997553;27;83061;-69
2022/01/04 11:04:29;;;;;;;1.03;0.93;;;8.60;99.90;8.50;98414.00;;;;4997169;28;82752;-70
2022/01/04 11:07:01;;;;;;;6.10;1.37;;;8.60;99.90;8.50;98409.00;;;;5005806;27;111497;-71
2022/01/04 11:09:27;;;;;;;1.00;0.87;;;8.60;99.90;8.50;98402.00;;;;4998852;27;82682;-70
2022/01/04 11:11:52;;;;;;;1.40;1.10;;;8.50;99.90;8.50;98405.00;;;;5016328;27;113742;-71
2022/01/04 11:14:18;;;;;;;3.10;1.40;;;8.60;99.90;8.50;98401.00;;;;5017044;27;88401;-71
2022/01/04 11:16:44;;;;;;;1.07;0.80;;;9.80;99.90;8.60;98390.00;;;;5008515;27;82691;-71